METAR AND TAF INFORMATION
METAR FOR LGSR
ADDS - METARS form results

(1529 UTC 19 May 2019)
Data provider http://aviationweather.gov/metar/data/
 
METAR text: LGSR 191520Z 16007KT CAVOK 21/16 Q1010
Conditions at: LGSR (SANTORINI ISLAND, GR) observed 1520 UTC 19 May 2019
Temperature: 21.0°C (70°F)
Dewpoint: 16.0°C (61°F) [RH = 73%]
Pressure (altimeter): 29.82 inches Hg (1010.0 mb)
Winds: from the SSE (160 degrees) at 8 MPH (7 knots; 3.6 m/s)
Visibility: 6 or more miles (10+ km)
Ceiling: ceiling and visibility are OK
Clouds: unknown
Weather: no significant weather observed at this time

METAR text: LGSR 191450Z 16012KT CAVOK 21/15 Q1010 RMK FEW080 SCT180 BLU
Conditions at: LGSR (SANTORINI ISLAND, GR) observed 1450 UTC 19 May 2019
Temperature: 21.0°C (70°F)
Dewpoint: 15.0°C (59°F) [RH = 69%]
Pressure (altimeter): 29.82 inches Hg (1010.0 mb)
Winds: from the SSE (160 degrees) at 14 MPH (12 knots; 6.2 m/s)
Visibility: 6 or more miles (10+ km)
Ceiling: ceiling and visibility are OK
Clouds: unknown
Weather: no significant weather observed at this time

Forecast for: LGSR (SANTORINI ISLAND, GR)
Text: TAF LGSR 191100Z 1912/2012 13020KT 9999 FEW025
Forecast period: 1200 UTC 19 May 2019 to 0100 UTC 20 May 2019
Forecast type: FROM: standard forecast or significant change
Winds: from the SE (130 degrees) at 23 MPH (20 knots; 10.3 m/s)
Visibility: 6 or more miles 10+ km)
Ceiling: at least 12,000 feet AGL
Clouds: few clouds at 2500 feet AGL
Weather: no significant weather forecast for this period
Text: BECMG 2001/2003 30010KT
Forecast period: 0100 to 1200 UTC 20 May 2019
Forecast type: BECOMING: Conditions expected to become as follows by 0300 UTC 20 May 2019
Winds: from the WNW (300 degrees) at 12 MPH (10 knots; 5.1 m/s)
Visibility: 6 or more miles 10+ km)
Ceiling: at least 12,000 feet AGL
Clouds: few clouds at 2500 feet AGL
Weather: no significant weather forecast for this period

 ΧΑΡΤΗΣ ΑΕΡΟΔΡΟΜΙΟΥ

 RUNWAY INFORMATION
Διάδρομος 16L Runway length 6972 ft Runway width 98 ft
Runway elevation 123 ft Runway displaced threshold 0 ft Runway heading 159
Διάδρομος 34R Runway length 6972 ft Runway width 98 ft
Runway elevation 53 ft Runway displaced threshold 0 ft Runway heading 339
Διάδρομος 16R Runway length 0 ft Runway width 0 ft
Runway elevation 126 ft Runway displaced threshold 0 ft Runway heading 0
Διάδρομος 34L Runway length 0 ft Runway width 0 ft
Runway elevation 57 ft Runway displaced threshold 0 ft Runway heading 0

 ΣΥΧΝΟΤΗΤΕΣ ΑΕΡΟΔΡΟΜΙΟΥ
Τύπος A/G Όνομα RDO Συχνότητα 563.7 MHZ
Τύπος APP Όνομα APP Συχνότητα 118.05 MHZ
Τύπος TWR Όνομα TWR Συχνότητα 118.05 MHZ

 AIRPORT NEAR NAVIGATION AIDS
Τύπος TACAN Όνομα Santorini Συχνότητα 116400 KHZ
Τύπος VOR-DME Όνομα Santorini Συχνότητα 110400 KHZ
Τύπος NDB Όνομα Thira Συχνότητα 307 KHZ



Hellenic Air Force Virtual - All rights reserved 2019 - Powered by VAM